Time;durP1;ratioP1;P1;durP2;ratioP2;P2;SDS_P1;SDS_P2;PMS_P1;PMS_P2;Temp;Humidity;BMP_temperature;BMP_pressure;BME280_temperature;BME280_humidity;BME280_pressure;Samples;Min_cycle;Max_cycle;Signal;HPM_P1;HPM_P2
2022/10/15 00:01:39;;;;;;;39.27;31.17;;;14.90;99.90;;;;;;5133884;28;20254;-80
2022/10/15 00:04:05;;;;;;;38.03;30.43;;;15.10;99.90;;;;;;5133972;28;20633;-81
2022/10/15 00:06:31;;;;;;;35.97;27.60;;;15.10;99.90;;;;;;5133776;28;20167;-81
2022/10/15 00:08:56;;;;;;;36.73;29.57;;;15.10;99.90;;;;;;5133382;28;20699;-81
2022/10/15 00:11:27;;;;;;;38.80;29.13;;;15.10;99.90;;;;;;5133705;28;20562;-79
2022/10/15 00:13:58;;;;;;;34.80;27.37;;;15.10;99.90;;;;;;5115053;28;20206;-80
2022/10/15 00:16:26;;;;;;;32.47;25.70;;;15.10;99.90;;;;;;5134062;28;20176;-80
2022/10/15 00:18:55;;;;;;;30.83;27.00;;;15.10;99.90;;;;;;5115121;28;20600;-79
2022/10/15 00:21:21;;;;;;;34.50;27.23;;;15.10;99.90;;;;;;5133842;28;20167;-79
2022/10/15 00:23:48;;;;;;;32.53;25.63;;;15.20;99.90;;;;;;5133719;28;20556;-81
2022/10/15 00:26:19;;;;;;;30.80;26.67;;;15.10;99.90;;;;;;5133549;28;20205;-80
2022/10/15 00:28:46;;;;;;;33.57;25.93;;;15.10;99.90;;;;;;5133401;28;20238;-80
2022/10/15 00:31:16;;;;;;;28.07;24.73;;;15.10;99.90;;;;;;5134297;27;20233;-80
2022/10/15 00:33:42;;;;;;;28.90;25.27;;;15.20;99.90;;;;;;5118935;27;20742;-80
2022/10/15 00:36:15;;;;;;;30.00;24.43;;;15.20;99.90;;;;;;5119039;27;20535;-81
2022/10/15 00:38:41;;;;;;;29.60;24.20;;;15.20;99.90;;;;;;5137232;27;20175;-80
2022/10/15 00:41:11;;;;;;;28.33;25.03;;;15.20;99.90;;;;;;5118901;27;20222;-81
2022/10/15 00:43:52;;;;;;;28.93;23.53;;;15.20;99.90;;;;;;5137091;27;20197;-80
2022/10/15 00:46:40;;;;;;;30.33;23.87;;;15.20;99.90;;;;;;5137308;27;20197;-80
2022/10/15 00:49:25;;;;;;;26.33;22.23;;;15.20;99.90;;;;;;5137108;27;20178;-80
2022/10/15 00:52:09;;;;;;;26.13;22.70;;;15.20;99.90;;;;;;5137041;27;20245;-80
2022/10/15 00:54:42;;;;;;;24.87;21.83;;;15.30;99.90;;;;;;5118500;27;20627;-80
2022/10/15 00:57:08;;;;;;;27.83;23.60;;;15.30;99.90;;;;;;5137144;27;20159;-80
2022/10/15 00:59:37;;;;;;;25.33;22.43;;;15.30;99.90;;;;;;5118201;27;20236;-80
2022/10/15 01:02:04;;;;;;;24.40;21.80;;;15.40;99.90;;;;;;5136737;27;20556;-80
2022/10/15 01:04:30;;;;;;;26.67;21.43;;;15.30;99.90;;;;;;5118446;27;20182;-80
2022/10/15 01:06:56;;;;;;;25.87;21.40;;;15.30;99.90;;;;;;5136795;27;20218;-80
2022/10/15 01:09:21;;;;;;;24.63;20.73;;;15.30;99.90;;;;;;5136854;27;20174;-80
2022/10/15 01:11:49;;;;;;;24.27;20.77;;;15.30;99.90;;;;;;5136485;27;20167;-80
2022/10/15 01:14:46;;;;;;;23.07;20.67;;;15.20;99.90;;;;;;5136567;27;20320;-80
2022/10/15 01:17:26;;;;;;;25.00;21.37;;;15.20;99.90;;;;;;5136597;27;20174;-80
2022/10/15 01:19:52;;;;;;;26.60;21.33;;;15.20;99.90;;;;;;5136529;27;20193;-80
2022/10/15 01:22:36;;;;;;;24.87;22.17;;;15.20;99.90;;;;;;5136465;27;20198;-80
2022/10/15 01:25:23;;;;;;;22.53;19.40;;;15.20;99.90;;;;;;5118081;27;20216;-81
2022/10/15 01:28:15;;;;;;;24.80;21.30;;;15.30;99.90;;;;;;5117481;27;20178;-81
2022/10/15 01:30:48;;;;;;;26.77;21.67;;;15.30;99.90;;;;;;5131056;27;20218;-80
2022/10/15 01:33:36;;;;;;;23.80;21.03;;;15.20;99.90;;;;;;5136280;27;20158;-81
2022/10/15 01:36:16;;;;;;;26.53;20.50;;;15.10;99.90;;;;;;5117779;27;20159;-80
2022/10/15 01:38:58;;;;;;;24.23;20.87;;;15.20;99.90;;;;;;5136105;27;20249;-80
2022/10/15 01:41:33;;;;;;;24.20;20.70;;;15.20;99.90;;;;;;5135923;27;20158;-80
2022/10/15 01:44:04;;;;;;;24.60;21.87;;;15.20;99.90;;;;;;5136109;27;20239;-80
2022/10/15 01:46:53;;;;;;;26.20;21.97;;;15.20;99.90;;;;;;5136278;27;20163;-80
2022/10/15 01:49:25;;;;;;;25.90;21.90;;;15.20;99.90;;;;;;5136023;27;20168;-80
2022/10/15 01:51:52;;;;;;;26.53;22.00;;;15.10;99.90;;;;;;5136108;27;20247;-80
2022/10/15 01:54:19;;;;;;;25.30;21.00;;;15.00;99.90;;;;;;5117536;27;20680;-80
2022/10/15 01:56:48;;;;;;;27.87;22.10;;;15.00;99.90;;;;;;5135404;27;20183;-80
2022/10/15 01:59:20;;;;;;;26.17;22.13;;;15.10;99.90;;;;;;5135905;27;20166;-80
2022/10/15 02:01:46;;;;;;;30.33;22.83;;;15.10;99.90;;;;;;5135771;27;20661;-80
2022/10/15 02:04:19;;;;;;;30.63;23.50;;;15.10;99.90;;;;;;5135991;27;20166;-80
2022/10/15 02:06:48;;;;;;;30.03;24.73;;;15.10;99.90;;;;;;5117600;27;20166;-81
2022/10/15 02:09:30;;;;;;;30.97;24.27;;;15.20;99.90;;;;;;5135629;27;20198;-81
2022/10/15 02:12:30;;;;;;;28.37;23.13;;;15.20;99.90;;;;;;5116757;27;20178;-81
2022/10/15 02:15:09;;;;;;;32.07;24.63;;;15.30;99.90;;;;;;5135461;27;20205;-81
2022/10/15 02:17:41;;;;;;;35.90;26.07;;;15.40;99.90;;;;;;5135499;27;20650;-81
2022/10/15 02:20:18;;;;;;;33.30;25.87;;;15.40;99.90;;;;;;5135472;27;20165;-81
2022/10/15 02:23:11;;;;;;;32.40;24.93;;;15.40;99.90;;;;;;5135493;27;20203;-80
2022/10/15 02:25:39;;;;;;;33.13;24.93;;;15.30;99.90;;;;;;5106316;27;20185;-80
2022/10/15 02:28:06;;;;;;;30.10;23.77;;;15.20;99.90;;;;;;5116700;27;20166;-80
2022/10/15 02:30:33;;;;;;;33.40;24.67;;;15.20;99.90;;;;;;5134646;27;20226;-80
2022/10/15 02:32:59;;;;;;;30.50;25.00;;;15.10;99.90;;;;;;5116851;27;20651;-80
2022/10/15 02:35:26;;;;;;;32.83;25.00;;;15.10;99.90;;;;;;5116785;27;20170;-80
2022/10/15 02:37:53;;;;;;;31.10;24.37;;;15.10;99.90;;;;;;5116674;27;20167;-79
2022/10/15 02:40:27;;;;;;;27.70;22.97;;;15.10;99.90;;;;;;5134598;27;20177;-80
2022/10/15 02:42:53;;;;;;;30.50;23.97;;;15.00;99.90;;;;;;5135130;27;20162;-79
2022/10/15 02:45:19;;;;;;;28.40;21.87;;;15.00;99.90;;;;;;5135038;27;20260;-79
2022/10/15 02:47:45;;;;;;;26.10;21.67;;;15.00;99.90;;;;;;5134901;27;20661;-79
2022/10/15 02:50:11;;;;;;;27.73;22.17;;;15.00;99.90;;;;;;5134854;27;20162;-80
2022/10/15 02:52:36;;;;;;;23.93;20.10;;;14.90;99.90;;;;;;5134898;27;20535;-80
2022/10/15 02:55:02;;;;;;;25.27;20.63;;;14.90;99.90;;;;;;5133749;27;20734;-79
2022/10/15 02:57:27;;;;;;;28.30;22.93;;;14.80;99.90;;;;;;5134901;27;20174;-79
2022/10/15 02:59:53;;;;;;;27.90;21.33;;;14.80;99.90;;;;;;5134495;27;20200;-79
2022/10/15 03:02:19;;;;;;;27.00;22.53;;;14.90;99.90;;;;;;5134241;27;20184;-80
2022/10/15 03:04:44;;;;;;;26.23;21.53;;;14.90;99.90;;;;;;5134742;27;20223;-80
2022/10/15 03:07:10;;;;;;;27.27;22.13;;;14.90;99.90;;;;;;5116056;27;20174;-80
2022/10/15 03:09:35;;;;;;;29.30;22.00;;;14.90;99.90;;;;;;5134136;27;20657;-80
2022/10/15 03:12:01;;;;;;;26.63;21.90;;;14.90;99.90;;;;;;5115999;27;20174;-80
2022/10/15 03:14:27;;;;;;;27.17;21.47;;;14.90;99.90;;;;;;5134442;27;20560;-80
2022/10/15 03:16:52;;;;;;;25.97;21.10;;;15.00;99.90;;;;;;5134386;27;20201;-80
2022/10/15 03:19:18;;;;;;;25.80;21.63;;;15.00;99.90;;;;;;5133995;27;20182;-79
2022/10/15 03:21:44;;;;;;;23.87;20.47;;;15.00;99.90;;;;;;5134489;27;20630;-79
2022/10/15 03:24:09;;;;;;;25.93;22.27;;;14.90;99.90;;;;;;5133943;27;20159;-79
2022/10/15 03:26:35;;;;;;;26.27;21.83;;;14.90;99.90;;;;;;5134107;27;20215;-79
2022/10/15 03:29:01;;;;;;;27.47;21.63;;;14.80;99.90;;;;;;5115735;27;20185;-80
2022/10/15 03:31:26;;;;;;;29.10;22.70;;;14.80;99.90;;;;;;5133763;27;20320;-80
2022/10/15 03:33:52;;;;;;;28.13;22.40;;;14.70;99.90;;;;;;5115678;28;20218;-80
2022/10/15 03:36:17;;;;;;;28.87;22.70;;;14.70;99.90;;;;;;5115777;28;20687;-80
2022/10/15 03:38:43;;;;;;;32.93;23.00;;;14.60;99.90;;;;;;5115264;28;20217;-80
2022/10/15 03:41:09;;;;;;;28.63;22.40;;;14.60;99.90;;;;;;5115485;28;20198;-80
2022/10/15 03:43:34;;;;;;;30.60;23.63;;;14.50;99.90;;;;;;5133983;28;20166;-80
2022/10/15 03:46:02;;;;;;;32.93;25.47;;;14.50;99.90;;;;;;5134171;28;20170;-80
2022/10/15 03:48:27;;;;;;;34.40;24.80;;;14.50;99.90;;;;;;5115703;28;20221;-80
2022/10/15 03:50:53;;;;;;;33.80;25.43;;;14.50;99.90;;;;;;5133970;28;20167;-80
2022/10/15 03:53:19;;;;;;;31.27;25.00;;;14.50;99.90;;;;;;5115124;28;20480;-80
2022/10/15 03:55:44;;;;;;;31.33;24.80;;;14.50;99.90;;;;;;5133746;28;20174;-80
2022/10/15 03:58:10;;;;;;;32.97;24.33;;;14.50;99.90;;;;;;5115320;28;20549;-79
2022/10/15 04:00:35;;;;;;;32.73;25.13;;;14.50;99.90;;;;;;5134035;28;20166;-79
2022/10/15 04:03:01;;;;;;;27.87;22.33;;;14.50;99.90;;;;;;5133729;28;20626;-80
2022/10/15 04:05:27;;;;;;;28.33;21.57;;;14.50;99.90;;;;;;5134783;27;20276;-79
2022/10/15 04:07:52;;;;;;;26.20;21.33;;;14.50;99.90;;;;;;5137185;27;20167;-79
2022/10/15 04:10:18;;;;;;;25.13;20.70;;;14.50;99.90;;;;;;5137866;27;20170;-80
2022/10/15 04:12:43;;;;;;;23.67;20.13;;;14.40;99.90;;;;;;5137725;27;20162;-80
2022/10/15 04:15:09;;;;;;;23.20;19.63;;;14.30;99.90;;;;;;5137614;27;20205;-80
2022/10/15 04:17:35;;;;;;;22.33;17.57;;;14.30;99.90;;;;;;5119254;27;20508;-79
2022/10/15 04:20:00;;;;;;;20.80;17.97;;;14.20;99.90;;;;;;5137714;27;20645;-79
2022/10/15 04:22:26;;;;;;;22.30;17.27;;;14.20;99.90;;;;;;5137102;27;20158;-79
2022/10/15 04:24:51;;;;;;;20.97;17.07;;;14.10;99.90;;;;;;5118786;27;20170;-79
2022/10/15 04:27:17;;;;;;;24.10;17.57;;;14.10;99.90;;;;;;5119009;27;20231;-79
2022/10/15 04:29:43;;;;;;;20.77;17.27;;;14.10;99.90;;;;;;5118531;27;20170;-79
2022/10/15 04:32:13;;;;;;;21.73;16.27;;;14.10;99.90;;;;;;5115406;28;20262;-80
2022/10/15 04:34:38;;;;;;;20.53;16.60;;;14.00;99.90;;;;;;5116627;28;20190;-80
2022/10/15 04:37:04;;;;;;;18.37;15.63;;;14.10;99.90;;;;;;5116312;28;20519;-80
2022/10/15 04:39:29;;;;;;;19.37;15.03;;;14.10;99.90;;;;;;5116319;28;20163;-81
2022/10/15 04:41:55;;;;;;;18.80;15.27;;;14.10;99.90;;;;;;5116034;28;20171;-78
2022/10/15 04:44:21;;;;;;;19.53;14.37;;;14.10;99.90;;;;;;5117031;28;20256;-80
2022/10/15 04:46:46;;;;;;;17.97;15.23;;;14.10;99.90;;;;;;5116603;28;20174;-80
2022/10/15 04:49:12;;;;;;;16.37;14.00;;;14.10;99.90;;;;;;5116059;28;20209;-79
2022/10/15 04:51:38;;;;;;;16.93;13.50;;;14.10;99.90;;;;;;5115980;28;20241;-78
2022/10/15 04:54:03;;;;;;;19.57;15.20;;;14.10;99.90;;;;;;5114709;28;20210;-79
2022/10/15 04:56:29;;;;;;;16.70;12.80;;;14.10;99.90;;;;;;5114539;28;20172;-79
2022/10/15 04:58:55;;;;;;;15.53;12.87;;;14.20;99.90;;;;;;5116309;28;20167;-79
2022/10/15 05:01:20;;;;;;;15.67;12.97;;;14.20;99.90;;;;;;5116260;28;20627;-79
2022/10/15 05:03:47;;;;;;;16.00;13.00;;;14.30;99.90;;;;;;5115736;28;20563;-79
2022/10/15 05:06:18;;;;;;;16.23;12.87;;;14.30;99.90;;;;;;5114863;28;20170;-78
2022/10/15 05:08:44;;;;;;;14.97;12.50;;;14.40;99.90;;;;;;5115956;28;20171;-80
2022/10/15 05:11:19;;;;;;;13.23;11.70;;;14.40;99.90;;;;;;5115920;28;20170;-79
2022/10/15 05:13:45;;;;;;;13.93;11.27;;;14.40;99.90;;;;;;5115830;28;20291;-78
2022/10/15 05:16:21;;;;;;;12.57;11.23;;;14.50;99.90;;;;;;5115650;28;20254;-79
2022/10/15 05:18:49;;;;;;;14.43;10.83;;;14.50;99.90;;;;;;5113678;28;20171;-80
2022/10/15 05:21:16;;;;;;;12.60;10.97;;;14.60;99.90;;;;;;5115838;28;20213;-77
2022/10/15 05:23:43;;;;;;;12.10;10.90;;;14.60;99.90;;;;;;5115797;28;20167;-80
2022/10/15 05:26:13;;;;;;;11.77;10.43;;;14.70;99.90;;;;;;5114562;28;20258;-80
2022/10/15 05:28:39;;;;;;;13.07;10.50;;;14.80;99.90;;;;;;5114091;28;20711;-80
2022/10/15 05:31:10;;;;;;;11.20;10.00;;;14.80;99.90;;;;;;5123059;27;20226;-80
2022/10/15 05:33:36;;;;;;;13.33;11.20;;;14.70;99.90;;;;;;5135987;27;20673;-79
2022/10/15 05:36:12;;;;;;;11.03;9.53;;;14.70;99.90;;;;;;5136389;27;20165;-80
2022/10/15 05:38:38;;;;;;;11.50;9.97;;;14.70;99.90;;;;;;5117570;27;20178;-80
2022/10/15 05:41:04;;;;;;;10.67;9.57;;;14.70;99.90;;;;;;5117497;27;20166;-79
2022/10/15 05:43:30;;;;;;;10.87;8.97;;;14.70;99.90;;;;;;5117417;27;20178;-79
2022/10/15 05:45:56;;;;;;;10.23;8.70;;;14.60;99.90;;;;;;5117514;27;20648;-79
2022/10/15 05:48:21;;;;;;;9.90;8.67;;;14.60;99.90;;;;;;5135324;27;20637;-80
2022/10/15 05:50:47;;;;;;;11.60;8.80;;;14.60;99.90;;;;;;5117309;27;20181;-78
2022/10/15 05:53:12;;;;;;;10.10;8.90;;;14.50;99.90;;;;;;5135867;27;20174;-79
2022/10/15 05:55:38;;;;;;;12.13;9.00;;;14.60;99.90;;;;;;5135283;27;20174;-78
2022/10/15 05:58:04;;;;;;;9.47;8.47;;;14.60;99.90;;;;;;5135597;27;20652;-79
2022/10/15 06:00:30;;;;;;;9.47;7.67;;;14.60;99.90;;;;;;5135788;27;20257;-80
2022/10/15 06:02:56;;;;;;;10.27;8.53;;;14.60;99.90;;;;;;5116734;27;20289;-80
2022/10/15 06:05:22;;;;;;;8.30;7.50;;;14.60;99.90;;;;;;5136690;27;20194;-80
2022/10/15 06:07:47;;;;;;;8.30;7.50;;;14.60;99.90;;;;;;5119275;27;20167;-78
2022/10/15 06:10:13;;;;;;;8.07;7.27;;;14.60;99.90;;;;;;5137893;27;20534;-80
2022/10/15 06:12:39;;;;;;;9.83;7.23;;;14.70;99.90;;;;;;5139339;27;20178;-79
2022/10/15 06:15:05;;;;;;;9.77;7.30;;;14.70;99.90;;;;;;5149503;27;20190;-79
2022/10/15 06:17:31;;;;;;;8.63;7.03;;;14.70;99.90;;;;;;5150349;27;20166;-77
2022/10/15 06:19:56;;;;;;;8.13;7.10;;;14.70;99.90;;;;;;5151618;27;20166;-79
2022/10/15 06:22:22;;;;;;;8.20;7.40;;;14.70;99.90;;;;;;5150598;27;20163;-79
2022/10/15 06:24:48;;;;;;;7.37;6.67;;;14.70;99.90;;;;;;5151377;27;20167;-79
2022/10/15 06:27:13;;;;;;;7.70;6.90;;;14.70;99.90;;;;;;5153383;27;20162;-78
2022/10/15 06:29:39;;;;;;;8.03;6.70;;;14.70;99.90;;;;;;5133304;27;20186;-78
2022/10/15 06:32:09;;;;;;;9.90;6.97;;;14.70;99.90;;;;;;5149743;27;20222;-77
2022/10/15 06:34:35;;;;;;;8.80;6.93;;;14.80;99.90;;;;;;5150627;27;20262;-79
2022/10/15 06:37:01;;;;;;;9.63;7.97;;;14.80;99.90;;;;;;5146115;27;20177;-78
2022/10/15 06:39:26;;;;;;;9.03;7.07;;;14.80;99.90;;;;;;5129922;27;20155;-78
2022/10/15 06:41:52;;;;;;;7.60;6.80;;;14.90;99.90;;;;;;5152927;27;20188;-79
2022/10/15 06:44:17;;;;;;;8.17;6.87;;;14.90;99.90;;;;;;5151095;27;20234;-79
2022/10/15 06:46:43;;;;;;;7.40;6.67;;;15.10;99.90;;;;;;5152421;27;20170;-79
2022/10/15 06:49:09;;;;;;;7.73;6.70;;;15.20;99.90;;;;;;5150128;27;20237;-79
2022/10/15 06:51:36;;;;;;;7.30;6.60;;;15.30;99.90;;;;;;5149799;27;20172;-79
2022/10/15 06:54:02;;;;;;;7.03;6.33;;;15.30;99.90;;;;;;5148215;27;20198;-78
2022/10/15 06:56:28;;;;;;;7.77;6.97;;;15.30;99.90;;;;;;5125578;27;20577;-77
2022/10/15 06:58:54;;;;;;;7.67;6.47;;;15.40;99.90;;;;;;5144254;27;20173;-80
2022/10/15 07:01:20;;;;;;;8.30;6.80;;;15.40;99.90;;;;;;5143178;27;20194;-80
2022/10/15 07:03:49;;;;;;;8.80;6.83;;;15.40;99.90;;;;;;5147143;27;20580;-79
2022/10/15 07:06:15;;;;;;;8.67;6.43;;;15.40;99.90;;;;;;5137219;27;20174;-79
2022/10/15 07:08:41;;;;;;;7.20;6.50;;;15.40;99.90;;;;;;5156365;27;20151;-78
2022/10/15 07:11:08;;;;;;;7.67;6.87;;;15.40;99.90;;;;;;5156708;27;20186;-79
2022/10/15 07:13:34;;;;;;;7.40;6.70;;;15.40;99.90;;;;;;5146635;27;20674;-79
2022/10/15 07:16:07;;;;;;;7.43;6.70;;;15.40;99.90;;;;;;5129712;27;20181;-79
2022/10/15 07:18:34;;;;;;;6.80;6.20;;;15.40;99.90;;;;;;5147469;27;20191;-80
2022/10/15 07:21:00;;;;;;;7.53;6.33;;;15.40;99.90;;;;;;5147649;27;20174;-79
2022/10/15 07:23:27;;;;;;;7.87;5.97;;;15.50;99.90;;;;;;5151351;27;20657;-79
2022/10/15 07:25:53;;;;;;;6.87;5.90;;;15.60;99.90;;;;;;5151647;27;20166;-78
2022/10/15 07:28:18;;;;;;;6.33;5.73;;;15.70;99.90;;;;;;5148854;27;20170;-79
2022/10/15 07:30:44;;;;;;;6.00;5.40;;;15.80;99.90;;;;;;5149346;27;20214;-79
2022/10/15 07:33:09;;;;;;;5.93;5.43;;;16.00;99.90;;;;;;5151202;27;20162;-78
2022/10/15 07:35:36;;;;;;;5.57;5.03;;;16.10;99.90;;;;;;5151383;27;20192;-79
2022/10/15 07:38:02;;;;;;;5.50;5.00;;;16.20;99.90;;;;;;5148489;28;20188;-77
2022/10/15 07:40:28;;;;;;;5.00;4.60;;;16.20;99.90;;;;;;5149102;27;20166;-78
2022/10/15 07:42:55;;;;;;;5.77;5.27;;;16.20;99.90;;;;;;5137672;27;20190;-77
2022/10/15 07:45:22;;;;;;;5.50;5.00;;;16.10;99.90;;;;;;5137499;27;20167;-77
2022/10/15 07:47:48;;;;;;;4.80;4.40;;;16.10;99.90;;;;;;5154364;27;20227;-78
2022/10/15 07:50:13;;;;;;;5.53;5.03;;;16.10;99.90;;;;;;5133847;27;20546;-78
2022/10/15 07:52:39;;;;;;;5.00;4.53;;;16.10;99.90;;;;;;5152006;27;20174;-78
2022/10/15 07:55:05;;;;;;;5.13;4.67;;;16.00;99.90;;;;;;5135462;27;20202;-78
2022/10/15 07:57:30;;;;;;;4.60;4.03;;;16.00;99.90;;;;;;5151590;27;20186;-80
2022/10/15 07:59:56;;;;;;;5.33;3.87;;;16.00;99.90;;;;;;5152588;27;20179;-79
2022/10/15 08:02:22;;;;;;;5.67;3.80;;;16.00;99.90;;;;;;5152882;27;20166;-79
2022/10/15 08:04:47;;;;;;;4.73;4.33;;;16.00;99.90;;;;;;5152005;27;20511;-80
2022/10/15 08:07:13;;;;;;;3.80;3.50;;;16.00;99.90;;;;;;5152379;27;20218;-79
2022/10/15 08:09:39;;;;;;;3.87;3.57;;;16.00;99.90;;;;;;5131387;27;20622;-80
2022/10/15 08:12:05;;;;;;;4.70;3.50;;;16.00;99.90;;;;;;5131203;27;20614;-80
2022/10/15 08:14:32;;;;;;;4.17;3.13;;;16.10;99.90;;;;;;5150551;27;20288;-79
2022/10/15 08:16:58;;;;;;;3.30;3.00;;;16.10;99.90;;;;;;5153079;27;20169;-79
2022/10/15 08:19:23;;;;;;;3.37;3.13;;;16.00;99.90;;;;;;5151327;27;20529;-79
2022/10/15 08:21:49;;;;;;;3.10;2.90;;;16.10;99.90;;;;;;5154225;27;20170;-79
2022/10/15 08:24:14;;;;;;;3.80;2.47;;;16.10;99.90;;;;;;5133997;27;20182;-79
2022/10/15 08:26:40;;;;;;;3.03;2.80;;;16.20;99.90;;;;;;5152701;27;20181;-78
2022/10/15 08:29:06;;;;;;;3.10;2.70;;;16.30;99.90;;;;;;5152056;27;20162;-78
2022/10/15 08:31:32;;;;;;;2.70;2.33;;;16.40;99.90;;;;;;5150862;27;20210;-80
2022/10/15 08:34:04;;;;;;;2.60;2.40;;;16.50;99.90;;;;;;5151833;27;20194;-78
2022/10/15 08:36:29;;;;;;;4.07;2.23;;;16.60;99.90;;;;;;5148193;27;20542;-80
2022/10/15 08:38:55;;;;;;;2.10;1.90;;;16.60;99.90;;;;;;5114919;27;20197;-78
2022/10/15 08:41:42;;;;;;;2.33;2.10;;;16.60;99.90;;;;;;5147846;27;20166;-80
2022/10/15 08:44:26;;;;;;;1.77;1.60;;;16.80;99.90;;;;;;5132083;27;20193;-80
2022/10/15 08:46:58;;;;;;;1.70;1.60;;;16.80;99.90;;;;;;5133849;27;20173;-80
2022/10/15 08:49:47;;;;;;;1.57;1.47;;;16.90;99.90;;;;;;5152493;27;20185;-80
2022/10/15 08:52:38;;;;;;;2.03;1.50;;;16.80;99.90;;;;;;5147852;27;20239;-79
2022/10/15 08:55:04;;;;;;;1.33;1.23;;;16.90;99.90;;;;;;5150608;27;20209;-79
2022/10/15 08:57:47;;;;;;;1.43;1.33;;;16.80;99.90;;;;;;5148783;27;20622;-79
2022/10/15 09:00:19;;;;;;;4.53;2.33;;;16.90;99.90;;;;;;5148532;27;20166;-79
2022/10/15 09:02:55;;;;;;;1.50;1.40;;;16.90;99.90;;;;;;5151321;27;20169;-80
2022/10/15 09:05:47;;;;;;;1.23;1.13;;;17.00;99.90;;;;;;5150413;27;20217;-80
2022/10/15 09:08:47;;;;;;;1.13;1.13;;;17.00;99.90;;;;;;5151442;27;20171;-79
2022/10/15 09:11:50;;;;;;;1.58;1.27;;;17.10;99.90;;;;;;5145420;27;20163;-79
2022/10/15 09:14:21;;;;;;;1.00;1.00;;;17.10;99.90;;;;;;5041360;28;20210;-80
2022/10/15 09:16:49;;;;;;;2.50;1.25;;;17.20;99.90;;;;;;5045393;28;20174;-79
2022/10/15 09:19:18;;;;;;;1.30;1.20;;;17.10;99.90;;;;;;5042188;28;20182;-80
2022/10/15 09:21:49;;;;;;;2.42;1.10;;;17.10;99.90;;;;;;5034765;28;20235;-81
2022/10/15 09:24:22;;;;;;;1.30;1.20;;;17.20;99.90;;;;;;5033423;28;20208;-81
2022/10/15 09:27:30;;;;;;;1.83;1.43;;;17.10;99.90;;;;;;5032932;28;20171;-81
2022/10/15 09:30:20;;;;;;;3.80;2.17;;;17.00;99.90;;;;;;5017092;28;20228;-80
2022/10/15 09:32:58;;;;;;;1.57;1.30;;;17.00;99.90;;;;;;5019175;28;20205;-80
2022/10/15 09:35:55;;;;;;;1.50;1.40;;;17.00;99.90;;;;;;5021720;28;20239;-80
2022/10/15 09:38:39;;;;;;;1.30;1.20;;;17.00;99.90;;;;;;5035718;28;20637;-80
2022/10/15 09:41:42;;;;;;;1.63;1.52;;;17.10;99.90;;;;;;5035122;28;20197;-80
2022/10/15 09:44:12;;;;;;;1.50;1.37;;;17.30;99.90;;;;;;5037896;28;20185;-80
2022/10/15 09:46:43;;;;;;;1.40;1.30;;;17.60;99.90;;;;;;5022541;28;20189;-80
2022/10/15 09:49:18;;;;;;;1.80;1.70;;;17.70;99.90;;;;;;5036273;28;20193;-80
2022/10/15 09:51:49;;;;;;;1.63;1.52;;;17.90;99.90;;;;;;5086980;28;20183;-80
2022/10/15 09:54:35;;;;;;;3.25;2.95;;;18.00;99.90;;;;;;5095444;28;20204;-80
2022/10/15 09:57:01;;;;;;;1.60;1.20;;;18.00;99.90;;;;;;5082282;28;20212;-80
2022/10/15 09:59:27;;;;;;;1.60;1.40;;;18.20;99.90;;;;;;5097526;28;20707;-80
2022/10/15 10:02:16;;;;;;;1.17;1.17;;;18.20;99.90;;;;;;5095332;28;20172;-79
2022/10/15 10:04:42;;;;;;;1.92;1.30;;;18.20;99.90;;;;;;5114217;27;20179;-80
2022/10/15 10:07:24;;;;;;;1.13;1.05;;;18.20;99.90;;;;;;5140356;27;20665;-80
2022/10/15 10:09:54;;;;;;;1.40;1.30;;;18.10;99.90;;;;;;5136346;27;20171;-81
2022/10/15 10:12:33;;;;;;;1.70;1.60;;;18.10;99.90;;;;;;5136907;27;20610;-80
2022/10/15 10:15:08;;;;;;;1.80;1.65;;;18.20;99.90;;;;;;5139084;27;20202;-80
2022/10/15 10:17:34;;;;;;;2.85;1.75;;;18.30;99.90;;;;;;5122618;27;20641;-81
2022/10/15 10:20:09;;;;;;;1.42;1.38;;;18.40;99.90;;;;;;5139440;27;20178;-81
2022/10/15 10:22:51;;;;;;;2.55;1.80;;;18.40;99.90;;;;;;5143133;27;20162;-80
2022/10/15 10:25:26;;;;;;;1.60;1.50;;;18.40;99.90;;;;;;5138200;27;20151;-81
2022/10/15 10:28:12;;;;;;;1.80;1.50;;;18.40;99.90;;;;;;5118263;27;20217;-81
2022/10/15 10:30:51;;;;;;;2.33;2.03;;;18.40;99.90;;;;;;5137998;27;20206;-81
2022/10/15 10:33:40;;;;;;;1.55;1.45;;;18.40;99.90;;;;;;5119868;27;20197;-81
2022/10/15 10:36:17;;;;;;;1.70;1.60;;;18.30;99.90;;;;;;5118645;27;20575;-81
2022/10/15 10:38:55;;;;;;;1.90;1.80;;;18.30;99.90;;;;;;5136491;27;20178;-80
2022/10/15 10:41:21;;;;;;;1.90;1.80;;;18.40;99.90;;;;;;5121061;27;20166;-80
2022/10/15 10:43:54;;;;;;;2.13;1.90;;;18.50;99.90;;;;;;5139217;27;20173;-81
2022/10/15 10:46:23;;;;;;;2.30;1.73;;;18.70;99.90;;;;;;5138108;27;20166;-81
2022/10/15 10:48:53;;;;;;;1.90;1.80;;;18.80;99.90;;;;;;5102785;27;20166;-80
2022/10/15 10:51:24;;;;;;;1.90;1.80;;;18.80;99.90;;;;;;5134736;27;20163;-81
2022/10/15 10:54:13;;;;;;;1.65;1.55;;;18.90;99.90;;;;;;5133065;27;20256;-81
2022/10/15 10:56:42;;;;;;;2.00;1.85;;;19.00;99.90;;;;;;5133975;27;20162;-80
2022/10/15 10:59:20;;;;;;;2.20;1.95;;;19.20;99.90;;;;;;5133500;27;20174;-81
2022/10/15 11:01:46;;;;;;;3.45;2.03;;;19.40;99.90;;;;;;5135170;27;20164;-81
2022/10/15 11:04:33;;;;;;;2.45;1.80;;;19.50;99.90;;;;;;5134531;27;20171;-81
2022/10/15 11:07:07;;;;;;;1.77;1.67;;;19.60;99.90;;;;;;5133865;27;20182;-81
2022/10/15 11:10:03;;;;;;;3.60;1.77;;;19.60;99.90;;;;;;5133793;27;20174;-81
2022/10/15 11:13:02;;;;;;;4.82;1.65;;;19.60;99.90;;;;;;5133125;27;20162;-81
2022/10/15 11:15:51;;;;;;;3.28;2.08;;;19.50;99.90;;;;;;5114152;27;20332;-80
2022/10/15 11:18:34;;;;;;;1.80;1.60;;;19.70;99.90;;;;;;5131860;27;20166;-81
2022/10/15 11:21:41;;;;;;;1.70;1.60;;;19.80;99.90;;;;;;5113902;27;20247;-81
2022/10/15 11:24:34;;;;;;;1.52;1.42;;;19.90;99.90;;;;;;5028915;28;20673;-81
2022/10/15 11:27:35;;;;;;;1.70;1.60;;;20.00;99.90;;;;;;5029901;28;20186;-81
2022/10/15 11:30:11;;;;;;;2.90;1.60;;;19.80;99.90;;;;;;5013025;28;20296;-80
2022/10/15 11:32:53;;;;;;;2.33;1.70;;;19.80;99.90;;;;;;5030432;28;20221;-81
2022/10/15 11:35:37;;;;;;;2.08;1.80;;;19.80;99.90;;;;;;5029553;28;20316;-81
2022/10/15 11:38:12;;;;;;;1.95;1.30;;;19.50;99.90;;;;;;5030570;28;20197;-81
2022/10/15 11:41:06;;;;;;;1.90;1.80;;;19.20;99.90;;;;;;5030083;28;20190;-81
2022/10/15 11:43:57;;;;;;;2.03;1.50;;;19.20;99.90;;;;;;5030480;28;20174;-81
2022/10/15 11:46:35;;;;;;;2.05;1.95;;;19.30;99.90;;;;;;5031176;28;20197;-81
2022/10/15 11:49:18;;;;;;;2.55;1.63;;;19.80;99.90;;;;;;5012918;28;20276;-81
2022/10/15 11:52:05;;;;;;;1.45;1.40;;;19.80;99.90;;;;;;5029568;28;20177;-81
2022/10/15 11:54:39;;;;;;;1.83;1.58;;;20.00;99.90;;;;;;5012431;28;20494;-80
2022/10/15 11:57:09;;;;;;;1.55;1.52;;;20.30;99.90;;;;;;5029026;28;20189;-81
2022/10/15 11:59:39;;;;;;;1.73;1.50;;;20.50;99.90;;;;;;5041631;28;20521;-81
2022/10/15 12:02:18;;;;;;;4.15;1.60;;;20.30;99.90;;;;;;5089685;28;20168;-81
2022/10/15 12:04:51;;;;;;;1.58;1.30;;;20.10;99.90;;;;;;5089948;28;20211;-81
2022/10/15 12:07:24;;;;;;;1.38;1.30;;;20.10;99.90;;;;;;5088367;28;20211;-81
2022/10/15 12:09:54;;;;;;;1.45;1.10;;;19.90;99.90;;;;;;5089732;28;20679;-81
2022/10/15 12:12:38;;;;;;;1.92;1.50;;;20.10;99.90;;;;;;5088719;28;20175;-80
2022/10/15 12:15:23;;;;;;;1.55;1.52;;;20.20;99.90;;;;;;5089035;28;20233;-81
2022/10/15 12:17:58;;;;;;;1.80;1.50;;;20.40;99.90;;;;;;5090164;28;20180;-81
2022/10/15 12:20:26;;;;;;;1.40;1.30;;;20.50;99.90;;;;;;5090498;28;20172;-80
2022/10/15 12:22:51;;;;;;;1.52;1.42;;;20.50;99.90;;;;;;5096495;28;20179;-82
2022/10/15 12:25:35;;;;;;;1.55;1.20;;;20.10;99.90;;;;;;5112883;28;20213;-83
2022/10/15 12:28:15;;;;;;;1.73;1.30;;;19.30;99.90;;;;;;5115234;28;20171;-81
2022/10/15 12:30:51;;;;;;;1.27;1.00;;;18.90;99.90;;;;;;5120419;27;20218;-81
2022/10/15 12:33:28;;;;;;;0.93;0.93;;;18.50;99.90;;;;;;5137228;27;20622;-80
2022/10/15 12:36:10;;;;;;;1.20;1.10;;;18.30;99.90;;;;;;5140375;27;20226;-80
2022/10/15 12:38:39;;;;;;;2.60;0.82;;;18.20;99.90;;;;;;5141721;27;20216;-79
2022/10/15 12:41:08;;;;;;;0.85;0.70;;;18.30;99.90;;;;;;5139280;27;20174;-80
2022/10/15 12:43:52;;;;;;;2.92;0.98;;;18.20;99.90;;;;;;5138711;27;20210;-80
2022/10/15 12:46:18;;;;;;;0.82;0.68;;;18.10;99.90;;;;;;5136634;27;20170;-79
2022/10/15 12:48:45;;;;;;;1.20;0.85;;;18.10;99.90;;;;;;5136474;27;20170;-80
2022/10/15 12:51:23;;;;;;;0.75;0.60;;;18.30;99.90;;;;;;5136128;27;20171;-80
2022/10/15 12:53:50;;;;;;;1.17;1.05;;;18.40;99.90;;;;;;5136582;27;20194;-81
2022/10/15 12:56:21;;;;;;;1.58;0.90;;;18.70;99.90;;;;;;5118121;27;20181;-81
2022/10/15 12:58:55;;;;;;;2.85;1.20;;;18.80;99.90;;;;;;5136199;27;20250;-80
2022/10/15 13:01:21;;;;;;;1.25;0.70;;;19.00;99.90;;;;;;5141607;27;20223;-80